createdAt,value
2022-11-15T00:00:16.727Z,11.52
2022-11-15T00:05:21.735Z,11.60
2022-11-15T00:10:26.828Z,15.60
2022-11-15T00:15:34.415Z,13.23
2022-11-15T00:20:39.432Z,10.10
2022-11-15T00:25:44.517Z,10.20
2022-11-15T00:30:52.085Z,10.30
2022-11-15T00:35:58.301Z,9.40
2022-11-15T00:41:07.898Z,11.32
2022-11-15T00:46:17.172Z,10.85
2022-11-15T00:51:22.188Z,10.30
2022-11-15T00:56:27.172Z,10.38
2022-11-15T01:01:34.801Z,9.63
2022-11-15T01:06:39.796Z,10.98
2022-11-15T01:11:44.829Z,10.55
2022-11-15T01:16:52.420Z,10.40
2022-11-15T01:21:57.513Z,9.65
2022-11-15T01:27:02.515Z,9.95
2022-11-15T01:32:10.208Z,10.85
2022-11-15T01:37:15.260Z,10.30
2022-11-15T01:42:20.676Z,11.55
2022-11-15T01:47:30.296Z,10.93
2022-11-15T01:52:36.864Z,8.67
2022-11-15T01:57:42.277Z,8.93
2022-11-15T02:02:49.964Z,9.95
2022-11-15T02:07:55.575Z,9.52
2022-11-15T02:13:01.400Z,9.30
2022-11-15T02:18:15.638Z,8.93
2022-11-15T02:23:39.893Z,8.90
2022-11-15T02:28:49.817Z,9.63
2022-11-15T02:34:00.544Z,8.48
2022-11-15T02:39:10.233Z,7.75
2022-11-15T02:44:21.073Z,7.47
2022-11-15T02:49:29.538Z,7.55
2022-11-15T02:54:36.337Z,7.10
2022-11-15T03:00:07.262Z,7.45
2022-11-15T03:05:21.627Z,6.60
2022-11-15T03:10:30.265Z,6.68
2022-11-15T03:15:37.896Z,6.70
2022-11-15T03:20:46.819Z,6.97
2022-11-15T03:25:53.274Z,7.45
2022-11-15T03:30:59.264Z,7.25
2022-11-15T03:36:07.287Z,6.35
2022-11-15T03:41:17.363Z,6.20
2022-11-15T03:46:28.618Z,6.03
2022-11-15T03:51:36.465Z,4.82
2022-11-15T03:56:41.446Z,4.90
2022-11-15T04:01:46.492Z,6.63
2022-11-15T04:06:54.112Z,4.90
2022-11-15T04:11:59.106Z,5.25
2022-11-15T04:17:04.126Z,4.38
2022-11-15T04:22:24.278Z,4.65
2022-11-15T04:27:29.254Z,4.45
2022-11-15T04:32:34.233Z,4.38
2022-11-15T04:37:46.401Z,4.60
2022-11-15T04:42:54.903Z,4.90
2022-11-15T04:48:01.357Z,4.35
2022-11-15T04:53:09.012Z,4.95
2022-11-15T04:58:14.019Z,4.28
2022-11-15T05:03:31.578Z,4.30
2022-11-15T05:08:39.479Z,4.20
2022-11-15T05:13:44.477Z,4.18
2022-11-15T05:18:49.559Z,5.45
2022-11-15T05:23:57.171Z,5.07
2022-11-15T05:29:03.361Z,5.60
2022-11-15T05:34:09.073Z,4.68
2022-11-15T05:39:16.862Z,5.43
2022-11-15T05:44:26.733Z,5.35
2022-11-15T05:49:34.512Z,6.43
2022-11-15T05:54:42.624Z,5.53
2022-11-15T05:59:48.040Z,4.97
2022-11-15T06:04:53.004Z,5.55
2022-11-15T06:10:00.558Z,6.30
2022-11-15T06:15:05.544Z,4.55
2022-11-15T06:20:11.569Z,4.88
2022-11-15T06:25:19.347Z,4.20
2022-11-15T06:30:24.669Z,5.30
2022-11-15T06:35:29.685Z,5.30
2022-11-15T06:40:37.978Z,6.20
2022-11-15T06:45:43.017Z,12.68
2022-11-15T06:50:54.729Z,6.75
2022-11-15T06:56:05.792Z,5.35
2022-11-15T07:01:12.412Z,5.25
2022-11-15T07:06:18.716Z,6.07
2022-11-15T07:11:26.369Z,4.55
2022-11-15T07:16:31.341Z,5.55
2022-11-15T07:21:36.922Z,4.93
2022-11-15T07:26:44.535Z,5.18
2022-11-15T07:31:49.922Z,5.60
2022-11-15T07:36:54.970Z,5.03
2022-11-15T07:42:15.348Z,6.32
2022-11-15T07:47:20.328Z,5.55
2022-11-15T07:52:25.339Z,5.55
2022-11-15T07:57:33.593Z,9.05
2022-11-15T08:02:38.619Z,9.60
2022-11-15T08:07:44.134Z,10.48
2022-11-15T08:12:51.861Z,8.00
2022-11-15T08:18:00.200Z,16.08
2022-11-15T08:23:07.096Z,8.32
2022-11-15T08:28:15.235Z,7.85
2022-11-15T08:33:20.672Z,8.25
2022-11-15T08:38:25.677Z,8.60
2022-11-15T08:43:33.568Z,15.73
2022-11-15T08:48:38.816Z,8.88
2022-11-15T08:53:43.939Z,9.30
2022-11-15T08:58:51.514Z,9.68
2022-11-15T09:03:59.356Z,11.30
2022-11-15T09:09:05.259Z,13.60
2022-11-15T09:14:14.929Z,8.35
2022-11-15T09:19:19.906Z,7.68
2022-11-15T09:24:24.926Z,7.15
2022-11-15T09:29:32.501Z,8.90
2022-11-15T09:34:37.849Z,10.63
2022-11-15T09:39:42.817Z,10.68
2022-11-15T09:44:59.150Z,8.55
2022-11-15T09:50:05.705Z,8.68
2022-11-15T09:55:15.230Z,10.27
2022-11-15T10:00:46.094Z,8.97
2022-11-15T10:05:51.388Z,8.23
2022-11-15T10:11:22.837Z,8.15
2022-11-15T10:16:46.134Z,8.25
2022-11-15T10:21:56.402Z,9.05
2022-11-15T10:27:01.385Z,7.45
2022-11-15T10:32:09.049Z,8.27
2022-11-15T10:37:14.141Z,13.70
2022-11-15T10:42:20.941Z,11.38
2022-11-15T10:47:38.848Z,9.45
2022-11-15T10:52:49.990Z,10.70
2022-11-15T10:57:56.925Z,10.57
2022-11-15T11:03:06.925Z,12.00
2022-11-15T11:13:30.498Z,12.07
2022-11-15T11:18:41.290Z,13.90
2022-11-15T11:23:53.130Z,12.73
2022-11-15T11:29:03.715Z,13.70
2022-11-15T11:34:19.219Z,14.15
2022-11-15T11:39:29.967Z,14.75
2022-11-15T11:44:44.464Z,14.57
2022-11-15T11:49:54.755Z,14.07
2022-11-15T11:55:05.051Z,14.40
2022-11-15T12:00:20.349Z,13.55
2022-11-15T12:05:33.420Z,18.65
2022-11-15T12:10:38.746Z,16.25
2022-11-15T12:15:47.674Z,17.17
2022-11-15T12:20:58.971Z,16.30
2022-11-15T12:26:06.014Z,16.05
2022-11-15T12:31:17.407Z,16.83
2022-11-15T12:36:40.019Z,23.98
2022-11-15T12:41:45.702Z,17.23
2022-11-15T12:47:08.167Z,17.23
2022-11-15T12:52:15.774Z,17.80
2022-11-15T12:57:40.452Z,16.67
2022-11-15T13:02:49.671Z,16.50
2022-11-15T13:08:03.290Z,17.90
2022-11-15T13:13:11.843Z,18.70
2022-11-15T13:18:41.553Z,19.15
2022-11-15T13:23:49.492Z,18.27
2022-11-15T13:28:57.086Z,18.15
2022-11-15T13:34:13.632Z,19.13
2022-11-15T13:39:34.959Z,17.52
2022-11-15T13:44:39.975Z,19.05
2022-11-15T13:49:45.525Z,19.23
2022-11-15T13:55:00.118Z,19.08
2022-11-15T14:00:08.263Z,19.88
2022-11-15T14:05:19.992Z,21.67
2022-11-15T14:10:33.590Z,22.83
2022-11-15T14:15:39.902Z,27.77
2022-11-15T14:20:44.916Z,31.30
2022-11-15T14:25:59.822Z,26.83
2022-11-15T14:31:04.877Z,25.33
2022-11-15T14:36:15.691Z,28.15
2022-11-15T14:41:26.015Z,28.88
2022-11-15T14:46:31.036Z,30.70
2022-11-15T14:51:36.910Z,28.08
2022-11-15T14:56:44.501Z,28.98
2022-11-15T15:01:49.512Z,32.38
2022-11-15T15:06:54.674Z,51.08
2022-11-15T15:12:06.348Z,56.45
2022-11-15T15:17:11.628Z,26.88
2022-11-15T15:22:18.822Z,24.30
2022-11-15T15:27:28.668Z,29.70
2022-11-15T15:32:33.657Z,46.90
2022-11-15T15:37:38.934Z,56.55
2022-11-15T15:42:46.564Z,52.85
2022-11-15T15:47:53.206Z,26.90
2022-11-15T15:52:59.569Z,30.80
2022-11-15T15:58:07.801Z,31.15
2022-11-15T16:03:12.794Z,32.03
2022-11-15T16:08:22.374Z,37.58
2022-11-15T16:13:29.965Z,68.33
2022-11-15T16:18:35.869Z,96.25
2022-11-15T16:23:40.997Z,74.85
2022-11-15T16:28:48.579Z,62.78
2022-11-15T16:33:53.591Z,66.93
2022-11-15T16:38:58.636Z,69.05
2022-11-15T16:44:06.261Z,80.40
2022-11-15T16:49:15.769Z,84.38
2022-11-15T16:54:20.785Z,91.20
2022-11-15T16:59:28.656Z,107.18
2022-11-15T17:04:35.407Z,95.13
2022-11-15T17:09:40.561Z,87.60
2022-11-15T17:14:48.678Z,92.15
2022-11-15T17:19:53.729Z,86.75
2022-11-15T17:24:58.722Z,89.57
2022-11-15T17:30:07.601Z,105.35
2022-11-15T17:35:15.648Z,131.07
2022-11-15T17:40:21.137Z,125.30
2022-11-15T17:45:28.721Z,130.25
2022-11-15T17:50:33.697Z,165.48
2022-11-15T17:55:38.773Z,256.33
2022-11-15T18:00:46.538Z,218.32
2022-11-15T18:05:51.571Z,196.63
2022-11-15T18:11:05.505Z,154.43
2022-11-15T18:16:15.633Z,148.73
2022-11-15T18:21:22.465Z,142.63
2022-11-15T18:26:29.637Z,135.07
2022-11-15T18:31:37.276Z,127.72
2022-11-15T18:36:42.945Z,121.00
2022-11-15T18:41:49.550Z,121.93
2022-11-15T18:46:57.173Z,127.47
2022-11-15T18:52:02.240Z,123.07
2022-11-15T18:57:08.188Z,124.07
2022-11-15T19:02:16.937Z,132.38
2022-11-15T19:07:21.963Z,136.18
2022-11-15T19:12:27.503Z,156.10
2022-11-15T19:17:35.243Z,149.32
2022-11-15T19:22:40.225Z,146.00
2022-11-15T19:27:45.245Z,113.53
2022-11-15T19:32:52.837Z,53.28
2022-11-15T19:37:57.926Z,38.58
2022-11-15T19:43:03.139Z,37.45
2022-11-15T19:48:10.841Z,34.83
2022-11-15T19:53:15.970Z,29.02
2022-11-15T19:58:21.233Z,29.95
2022-11-15T20:03:28.922Z,29.48
2022-11-15T20:08:34.292Z,36.03
2022-11-15T20:13:39.658Z,32.88
2022-11-15T20:18:47.818Z,30.63
2022-11-15T20:23:53.249Z,29.83
2022-11-15T20:29:01.454Z,32.20
2022-11-15T20:34:09.809Z,33.05
2022-11-15T20:39:15.146Z,28.92
2022-11-15T20:44:20.302Z,24.33
2022-11-15T20:49:28.545Z,25.30
2022-11-15T20:54:33.694Z,24.77
2022-11-15T20:59:41.602Z,23.30
2022-11-15T21:04:49.234Z,19.90
2022-11-15T21:10:06.662Z,57.97
2022-11-15T21:15:12.649Z,22.70
2022-11-15T21:20:20.635Z,16.38
2022-11-15T21:25:25.665Z,18.50
2022-11-15T21:30:31.446Z,16.95
2022-11-15T21:35:39.281Z,16.88
2022-11-15T21:40:44.458Z,19.08
2022-11-15T21:46:14.712Z,17.50
2022-11-15T21:51:22.744Z,17.10
2022-11-15T21:56:28.999Z,20.00
2022-11-15T22:01:46.632Z,25.33
2022-11-15T22:06:54.794Z,23.30
2022-11-15T22:11:59.842Z,23.95
2022-11-15T22:17:04.924Z,25.13
2022-11-15T22:22:12.706Z,21.33
2022-11-15T22:27:17.777Z,18.75
2022-11-15T22:32:23.010Z,16.85
2022-11-15T22:37:30.688Z,15.27
2022-11-15T22:42:38.833Z,17.60
2022-11-15T22:47:43.912Z,17.20
2022-11-15T22:52:51.628Z,19.13
2022-11-15T22:57:56.803Z,20.33
2022-11-15T23:03:01.899Z,20.42
2022-11-15T23:08:10.813Z,19.50
2022-11-15T23:13:19.772Z,20.83
2022-11-15T23:18:24.936Z,23.25
2022-11-15T23:23:33.025Z,23.63
2022-11-15T23:28:38.276Z,23.75
2022-11-15T23:33:55.618Z,25.73
2022-11-15T23:39:04.045Z,29.05
2022-11-15T23:44:09.196Z,25.85
2022-11-15T23:49:14.273Z,27.95
2022-11-15T23:54:22.014Z,29.95
2022-11-15T23:59:27.169Z,31.45
